sensor_id;sensor_type;location;lat;lon;timestamp;pressure;altitude;pressure_sealevel;temperature
24714;BMP280;12820;51.580;5.010;2022-11-20T00:01:48;101351.03;;;4.03
24714;BMP280;12820;51.580;5.010;2022-11-20T00:06:50;101360.88;;;3.97
24714;BMP280;12820;51.580;5.010;2022-11-20T00:11:52;101362.44;;;3.94
24714;BMP280;12820;51.580;5.010;2022-11-20T00:16:54;101372.28;;;3.89
24714;BMP280;12820;51.580;5.010;2022-11-20T00:21:56;101366.47;;;3.88
24714;BMP280;12820;51.580;5.010;2022-11-20T00:26:58;101365.53;;;3.83
24714;BMP280;12820;51.580;5.010;2022-11-20T00:32:00;101373.75;;;3.79
24714;BMP280;12820;51.580;5.010;2022-11-20T00:37:02;101364.50;;;3.75
24714;BMP280;12820;51.580;5.010;2022-11-20T00:42:04;101369.41;;;3.71
24714;BMP280;12820;51.580;5.010;2022-11-20T00:47:06;101366.81;;;3.66
24714;BMP280;12820;51.580;5.010;2022-11-20T00:52:08;101361.75;;;3.62
24714;BMP280;12820;51.580;5.010;2022-11-20T00:57:10;101367.50;;;3.59
24714;BMP280;12820;51.580;5.010;2022-11-20T01:02:12;101373.22;;;3.55
24714;BMP280;12820;51.580;5.010;2022-11-20T01:07:14;101363.19;;;3.53
24714;BMP280;12820;51.580;5.010;2022-11-20T01:12:17;101359.03;;;3.50
24714;BMP280;12820;51.580;5.010;2022-11-20T01:17:19;101352.28;;;3.45
24714;BMP280;12820;51.580;5.010;2022-11-20T01:22:21;101358.84;;;3.43
24714;BMP280;12820;51.580;5.010;2022-11-20T01:27:23;101376.97;;;3.39
24714;BMP280;12820;51.580;5.010;2022-11-20T01:32:25;101372.75;;;3.35
24714;BMP280;12820;51.580;5.010;2022-11-20T01:37:27;101366.88;;;3.33
24714;BMP280;12820;51.580;5.010;2022-11-20T01:42:29;101362.72;;;3.32
24714;BMP280;12820;51.580;5.010;2022-11-20T01:48:04;101355.25;;;3.31
24714;BMP280;12820;51.580;5.010;2022-11-20T01:53:08;101352.72;;;3.29
24714;BMP280;12820;51.580;5.010;2022-11-20T01:58:13;101361.88;;;3.30
24714;BMP280;12820;51.580;5.010;2022-11-20T02:03:17;101360.22;;;3.31
24714;BMP280;12820;51.580;5.010;2022-11-20T02:08:21;101347.91;;;3.35
24714;BMP280;12820;51.580;5.010;2022-11-20T02:13:23;101345.50;;;3.39
24714;BMP280;12820;51.580;5.010;2022-11-20T02:18:44;101350.69;;;3.48
24714;BMP280;12820;51.580;5.010;2022-11-20T02:24:06;101352.41;;;3.52
24714;BMP280;12820;51.580;5.010;2022-11-20T02:29:09;101347.59;;;3.58
24714;BMP280;12820;51.580;5.010;2022-11-20T02:34:11;101343.59;;;3.66
24714;BMP280;12820;51.580;5.010;2022-11-20T02:39:15;101342.09;;;3.72
24714;BMP280;12820;51.580;5.010;2022-11-20T02:44:19;101333.19;;;3.81
24714;BMP280;12820;51.580;5.010;2022-11-20T02:49:21;101337.44;;;3.87
24714;BMP280;12820;51.580;5.010;2022-11-20T02:54:24;101330.97;;;3.94
24714;BMP280;12820;51.580;5.010;2022-11-20T02:59:26;101320.28;;;4.00
24714;BMP280;12820;51.580;5.010;2022-11-20T03:04:28;101322.88;;;4.04
24714;BMP280;12820;51.580;5.010;2022-11-20T03:09:30;101316.34;;;4.09
24714;BMP280;12820;51.580;5.010;2022-11-20T03:14:33;101310.59;;;4.13
24714;BMP280;12820;51.580;5.010;2022-11-20T03:19:36;101299.84;;;4.14
24714;BMP280;12820;51.580;5.010;2022-11-20T03:24:38;101291.63;;;4.18
24714;BMP280;12820;51.580;5.010;2022-11-20T03:29:40;101291.69;;;4.21
24714;BMP280;12820;51.580;5.010;2022-11-20T03:34:42;101286.75;;;4.24
24714;BMP280;12820;51.580;5.010;2022-11-20T03:39:44;101280.19;;;4.25
24714;BMP280;12820;51.580;5.010;2022-11-20T03:44:46;101270.28;;;4.28
24714;BMP280;12820;51.580;5.010;2022-11-20T03:49:48;101265.31;;;4.28
24714;BMP280;12820;51.580;5.010;2022-11-20T03:54:50;101277.78;;;4.30
24714;BMP280;12820;51.580;5.010;2022-11-20T03:59:52;101266.19;;;4.32
24714;BMP280;12820;51.580;5.010;2022-11-20T04:04:54;101261.19;;;4.32
24714;BMP280;12820;51.580;5.010;2022-11-20T04:09:56;101262.03;;;4.32
24714;BMP280;12820;51.580;5.010;2022-11-20T04:14:58;101263.72;;;4.33
24714;BMP280;12820;51.580;5.010;2022-11-20T04:20:01;101261.31;;;4.36
24714;BMP280;12820;51.580;5.010;2022-11-20T04:25:04;101257.94;;;4.34
24714;BMP280;12820;51.580;5.010;2022-11-20T04:30:06;101254.66;;;4.37
24714;BMP280;12820;51.580;5.010;2022-11-20T04:35:08;101248.88;;;4.38
24714;BMP280;12820;51.580;5.010;2022-11-20T04:40:11;101243.94;;;4.39
24714;BMP280;12820;51.580;5.010;2022-11-20T04:45:13;101232.34;;;4.41
24714;BMP280;12820;51.580;5.010;2022-11-20T04:50:15;101234.00;;;4.42
24714;BMP280;12820;51.580;5.010;2022-11-20T04:55:17;101223.22;;;4.40
24714;BMP280;12820;51.580;5.010;2022-11-20T05:00:19;101222.34;;;4.38
24714;BMP280;12820;51.580;5.010;2022-11-20T05:05:21;101230.63;;;4.37
24714;BMP280;12820;51.580;5.010;2022-11-20T05:10:27;101228.09;;;4.34
24714;BMP280;12820;51.580;5.010;2022-11-20T05:15:29;101226.38;;;4.32
24714;BMP280;12820;51.580;5.010;2022-11-20T05:20:31;101219.72;;;4.29
24714;BMP280;12820;51.580;5.010;2022-11-20T05:25:33;101213.00;;;4.27
24714;BMP280;12820;51.580;5.010;2022-11-20T05:30:35;101232.03;;;4.24
24714;BMP280;12820;51.580;5.010;2022-11-20T05:35:37;101218.75;;;4.22
24714;BMP280;12820;51.580;5.010;2022-11-20T05:40:39;101229.47;;;4.19
24714;BMP280;12820;51.580;5.010;2022-11-20T05:45:41;101229.44;;;4.16
24714;BMP280;12820;51.580;5.010;2022-11-20T05:50:43;101230.13;;;4.09
24714;BMP280;12820;51.580;5.010;2022-11-20T05:55:45;101241.59;;;4.03
24714;BMP280;12820;51.580;5.010;2022-11-20T06:00:47;101236.56;;;3.97
24714;BMP280;12820;51.580;5.010;2022-11-20T06:05:49;101250.53;;;3.92
24714;BMP280;12820;51.580;5.010;2022-11-20T06:10:51;101236.31;;;3.86
24714;BMP280;12820;51.580;5.010;2022-11-20T06:15:53;101227.94;;;3.81
24714;BMP280;12820;51.580;5.010;2022-11-20T06:21:06;101210.44;;;3.76
24714;BMP280;12820;51.580;5.010;2022-11-20T06:26:13;101219.47;;;3.72
24714;BMP280;12820;51.580;5.010;2022-11-20T06:31:18;101207.00;;;3.70
24714;BMP280;12820;51.580;5.010;2022-11-20T06:36:22;101208.69;;;3.70
24714;BMP280;12820;51.580;5.010;2022-11-20T06:41:24;101204.50;;;3.70
24714;BMP280;12820;51.580;5.010;2022-11-20T06:46:27;101221.13;;;3.71
24714;BMP280;12820;51.580;5.010;2022-11-20T06:51:29;101210.31;;;3.71
24714;BMP280;12820;51.580;5.010;2022-11-20T06:56:31;101191.28;;;3.71
24714;BMP280;12820;51.580;5.010;2022-11-20T07:01:33;101206.19;;;3.71
24714;BMP280;12820;51.580;5.010;2022-11-20T07:06:35;101187.06;;;3.67
24714;BMP280;12820;51.580;5.010;2022-11-20T07:11:37;101196.13;;;3.65
24714;BMP280;12820;51.580;5.010;2022-11-20T07:16:39;101181.97;;;3.61
24714;BMP280;12820;51.580;5.010;2022-11-20T07:21:42;101191.06;;;3.59
24714;BMP280;12820;51.580;5.010;2022-11-20T07:26:46;101177.00;;;3.60
24714;BMP280;12820;51.580;5.010;2022-11-20T07:31:49;101187.78;;;3.62
24714;BMP280;12820;51.580;5.010;2022-11-20T07:36:51;101196.13;;;3.65
24714;BMP280;12820;51.580;5.010;2022-11-20T07:41:53;101196.25;;;3.71
24714;BMP280;12820;51.580;5.010;2022-11-20T07:46:55;101194.78;;;3.79
24714;BMP280;12820;51.580;5.010;2022-11-20T07:51:57;101193.25;;;3.87
24714;BMP280;12820;51.580;5.010;2022-11-20T07:57:05;101194.22;;;3.94
24714;BMP280;12820;51.580;5.010;2022-11-20T08:02:10;101201.00;;;4.03
24714;BMP280;12820;51.580;5.010;2022-11-20T08:07:12;101196.19;;;4.11
24714;BMP280;12820;51.580;5.010;2022-11-20T08:12:19;101195.50;;;4.20
24714;BMP280;12820;51.580;5.010;2022-11-20T08:17:40;101206.47;;;4.30
24714;BMP280;12820;51.580;5.010;2022-11-20T08:22:42;101201.66;;;4.42
24714;BMP280;12820;51.580;5.010;2022-11-20T08:27:44;101204.38;;;4.54
24714;BMP280;12820;51.580;5.010;2022-11-20T08:32:46;101192.09;;;4.65
24714;BMP280;12820;51.580;5.010;2022-11-20T08:37:48;101209.72;;;4.80
24714;BMP280;12820;51.580;5.010;2022-11-20T08:42:51;101198.28;;;4.91
24714;BMP280;12820;51.580;5.010;2022-11-20T08:47:53;101189.34;;;5.04
24714;BMP280;12820;51.580;5.010;2022-11-20T08:52:55;101195.31;;;5.18
24714;BMP280;12820;51.580;5.010;2022-11-20T08:57:57;101193.81;;;5.29
24714;BMP280;12820;51.580;5.010;2022-11-20T09:03:00;101184.81;;;5.39
24714;BMP280;12820;51.580;5.010;2022-11-20T09:08:03;101167.50;;;5.51
24714;BMP280;12820;51.580;5.010;2022-11-20T09:13:05;101160.97;;;5.62
24714;BMP280;12820;51.580;5.010;2022-11-20T09:18:07;101142.03;;;5.74
24714;BMP280;12820;51.580;5.010;2022-11-20T09:23:10;101141.34;;;5.88
24714;BMP280;12820;51.580;5.010;2022-11-20T09:28:12;101132.28;;;5.99
24714;BMP280;12820;51.580;5.010;2022-11-20T09:33:14;101124.84;;;6.04
24714;BMP280;12820;51.580;5.010;2022-11-20T09:38:16;101126.59;;;6.11
24714;BMP280;12820;51.580;5.010;2022-11-20T09:48:36;101104.28;;;6.30
24714;BMP280;12820;51.580;5.010;2022-11-20T09:58:51;101065.31;;;6.60
24714;BMP280;12820;51.580;5.010;2022-11-20T10:03:58;101057.94;;;6.79
24714;BMP280;12820;51.580;5.010;2022-11-20T10:25:11;101036.44;;;7.27
24714;BMP280;12820;51.580;5.010;2022-11-20T10:30:16;101023.94;;;7.29
24714;BMP280;12820;51.580;5.010;2022-11-20T10:35:27;101010.63;;;7.33
24714;BMP280;12820;51.580;5.010;2022-11-20T10:40:42;101009.81;;;7.40
24714;BMP280;12820;51.580;5.010;2022-11-20T10:46:00;100997.31;;;7.48
24714;BMP280;12820;51.580;5.010;2022-11-20T10:56:21;100986.47;;;7.65
24714;BMP280;12820;51.580;5.010;2022-11-20T11:01:24;100981.47;;;7.74
24714;BMP280;12820;51.580;5.010;2022-11-20T11:06:42;100963.91;;;7.87
24714;BMP280;12820;51.580;5.010;2022-11-20T11:11:47;100963.94;;;8.03
24714;BMP280;12820;51.580;5.010;2022-11-20T11:16:54;100951.41;;;8.14
24714;BMP280;12820;51.580;5.010;2022-11-20T11:21:57;100949.72;;;8.14
24714;BMP280;12820;51.580;5.010;2022-11-20T11:27:01;100934.72;;;8.13
24714;BMP280;12820;51.580;5.010;2022-11-20T11:32:20;100929.72;;;8.13
24714;BMP280;12820;51.580;5.010;2022-11-20T11:37:33;100894.66;;;8.13
24714;BMP280;12820;51.580;5.010;2022-11-20T11:42:46;100895.50;;;8.12
24714;BMP280;12820;51.580;5.010;2022-11-20T11:47:51;100871.31;;;8.14
24714;BMP280;12820;51.580;5.010;2022-11-20T11:53:14;100847.03;;;8.27
24714;BMP280;12820;51.580;5.010;2022-11-20T12:03:27;100830.94;;;8.68
24714;BMP280;12820;51.580;5.010;2022-11-20T12:08:42;100824.13;;;8.84
24714;BMP280;12820;51.580;5.010;2022-11-20T12:13:53;100817.38;;;8.93
24714;BMP280;12820;51.580;5.010;2022-11-20T12:18:57;100816.50;;;8.99
24714;BMP280;12820;51.580;5.010;2022-11-20T12:24:10;100813.13;;;9.04
24714;BMP280;12820;51.580;5.010;2022-11-20T12:40:45;100767.81;;;9.24
24714;BMP280;12820;51.580;5.010;2022-11-20T12:46:08;100744.25;;;9.37
24714;BMP280;12820;51.580;5.010;2022-11-20T12:51:39;100739.09;;;9.49
24714;BMP280;12820;51.580;5.010;2022-11-20T13:07:35;100703.34;;;9.32
24714;BMP280;12820;51.580;5.010;2022-11-20T13:12:46;100700.84;;;9.32
24714;BMP280;12820;51.580;5.010;2022-11-20T13:17:57;100686.63;;;9.31
24714;BMP280;12820;51.580;5.010;2022-11-20T13:23:00;100678.25;;;9.32
24714;BMP280;12820;51.580;5.010;2022-11-20T13:28:28;100665.78;;;9.29
24714;BMP280;12820;51.580;5.010;2022-11-20T13:33:36;100660.78;;;9.26
24714;BMP280;12820;51.580;5.010;2022-11-20T13:38:47;100652.47;;;9.22
24714;BMP280;12820;51.580;5.010;2022-11-20T13:43:52;100649.22;;;9.15
24714;BMP280;12820;51.580;5.010;2022-11-20T13:49:07;100626.69;;;9.12
24714;BMP280;12820;51.580;5.010;2022-11-20T13:54:40;100628.41;;;9.09
24714;BMP280;12820;51.580;5.010;2022-11-20T13:59:49;100621.78;;;9.02
24714;BMP280;12820;51.580;5.010;2022-11-20T14:04:57;100605.16;;;8.95
24714;BMP280;12820;51.580;5.010;2022-11-20T14:10:00;100602.72;;;8.89
24714;BMP280;12820;51.580;5.010;2022-11-20T14:15:02;100577.72;;;8.84
24714;BMP280;12820;51.580;5.010;2022-11-20T14:20:06;100571.16;;;8.77
24714;BMP280;12820;51.580;5.010;2022-11-20T14:25:18;100548.63;;;8.74
24714;BMP280;12820;51.580;5.010;2022-11-20T14:30:26;100534.47;;;8.70
24714;BMP280;12820;51.580;5.010;2022-11-20T14:35:33;100528.69;;;8.67
24714;BMP280;12820;51.580;5.010;2022-11-20T14:40:36;100517.00;;;8.64
24714;BMP280;12820;51.580;5.010;2022-11-20T14:45:38;100515.38;;;8.62
24714;BMP280;12820;51.580;5.010;2022-11-20T14:50:40;100507.88;;;8.60
24714;BMP280;12820;51.580;5.010;2022-11-20T14:55:42;100501.19;;;8.59
24714;BMP280;12820;51.580;5.010;2022-11-20T15:00:59;100483.66;;;8.59
24714;BMP280;12820;51.580;5.010;2022-11-20T15:06:01;100476.16;;;8.59
24714;BMP280;12820;51.580;5.010;2022-11-20T15:11:17;100459.44;;;8.60
24714;BMP280;12820;51.580;5.010;2022-11-20T15:16:21;100440.25;;;8.59
24714;BMP280;12820;51.580;5.010;2022-11-20T15:21:25;100438.56;;;8.59
24714;BMP280;12820;51.580;5.010;2022-11-20T15:26:27;100432.72;;;8.60
24714;BMP280;12820;51.580;5.010;2022-11-20T15:31:29;100424.38;;;8.61
24714;BMP280;12820;51.580;5.010;2022-11-20T15:36:31;100421.84;;;8.63
24714;BMP280;12820;51.580;5.010;2022-11-20T15:41:34;100411.78;;;8.64
24714;BMP280;12820;51.580;5.010;2022-11-20T15:46:39;100400.09;;;8.65
24714;BMP280;12820;51.580;5.010;2022-11-20T15:51:47;100397.59;;;8.68
24714;BMP280;12820;51.580;5.010;2022-11-20T15:56:50;100388.34;;;8.69
24714;BMP280;12820;51.580;5.010;2022-11-20T16:01:54;100380.81;;;8.71
24714;BMP280;12820;51.580;5.010;2022-11-20T16:06:56;100369.09;;;8.73
24714;BMP280;12820;51.580;5.010;2022-11-20T16:11:58;100369.91;;;8.76
24714;BMP280;12820;51.580;5.010;2022-11-20T16:17:03;100355.66;;;8.78
24714;BMP280;12820;51.580;5.010;2022-11-20T16:22:05;100335.59;;;8.80
24714;BMP280;12820;51.580;5.010;2022-11-20T16:27:07;100348.94;;;8.82
24714;BMP280;12820;51.580;5.010;2022-11-20T16:32:10;100328.00;;;8.86
24714;BMP280;12820;51.580;5.010;2022-11-20T16:37:14;100310.41;;;8.88
24714;BMP280;12820;51.580;5.010;2022-11-20T16:42:16;100303.63;;;8.93
24714;BMP280;12820;51.580;5.010;2022-11-20T16:47:18;100279.31;;;8.98
24714;BMP280;12820;51.580;5.010;2022-11-20T16:52:20;100260.88;;;9.02
24714;BMP280;12820;51.580;5.010;2022-11-20T16:57:22;100241.63;;;9.05
24714;BMP280;12820;51.580;5.010;2022-11-20T17:02:24;100229.78;;;9.12
24714;BMP280;12820;51.580;5.010;2022-11-20T17:07:26;100233.91;;;9.16
24714;BMP280;12820;51.580;5.010;2022-11-20T17:12:28;100245.47;;;9.23
24714;BMP280;12820;51.580;5.010;2022-11-20T17:17:30;100256.22;;;9.29
24714;BMP280;12820;51.580;5.010;2022-11-20T17:22:32;100267.78;;;9.36
24714;BMP280;12820;51.580;5.010;2022-11-20T17:27:34;100294.41;;;9.42
24714;BMP280;12820;51.580;5.010;2022-11-20T17:32:36;100309.38;;;9.48
24714;BMP280;12820;51.580;5.010;2022-11-20T17:37:38;100325.97;;;9.54
24714;BMP280;12820;51.580;5.010;2022-11-20T17:42:41;100336.75;;;9.58
24714;BMP280;12820;51.580;5.010;2022-11-20T17:47:43;100343.38;;;9.62
24714;BMP280;12820;51.580;5.010;2022-11-20T17:52:47;100360.03;;;9.66
24714;BMP280;12820;51.580;5.010;2022-11-20T17:57:49;100367.50;;;9.69
24714;BMP280;12820;51.580;5.010;2022-11-20T18:02:54;100372.50;;;9.71
24714;BMP280;12820;51.580;5.010;2022-11-20T18:07:56;100375.78;;;9.73
24714;BMP280;12820;51.580;5.010;2022-11-20T18:12:58;100387.53;;;9.72
24714;BMP280;12820;51.580;5.010;2022-11-20T18:18:00;100385.03;;;9.72
24714;BMP280;12820;51.580;5.010;2022-11-20T18:23:02;100373.31;;;9.71
24714;BMP280;12820;51.580;5.010;2022-11-20T18:28:05;100386.72;;;9.70
24714;BMP280;12820;51.580;5.010;2022-11-20T18:33:08;100397.59;;;9.69
24714;BMP280;12820;51.580;5.010;2022-11-20T18:38:10;100389.31;;;9.66
24714;BMP280;12820;51.580;5.010;2022-11-20T18:43:12;100391.84;;;9.64
24714;BMP280;12820;51.580;5.010;2022-11-20T18:48:32;100400.25;;;9.62
24714;BMP280;12820;51.580;5.010;2022-11-20T18:53:34;100398.59;;;9.59
24714;BMP280;12820;51.580;5.010;2022-11-20T18:58:36;100427.09;;;9.57
24714;BMP280;12820;51.580;5.010;2022-11-20T19:03:39;100431.28;;;9.57
24714;BMP280;12820;51.580;5.010;2022-11-20T19:08:41;100426.28;;;9.54
24714;BMP280;12820;51.580;5.010;2022-11-20T19:13:44;100421.31;;;9.52
24714;BMP280;12820;51.580;5.010;2022-11-20T19:18:46;100421.34;;;9.51
24714;BMP280;12820;51.580;5.010;2022-11-20T19:23:54;100417.22;;;9.48
24714;BMP280;12820;51.580;5.010;2022-11-20T19:28:56;100419.75;;;9.47
24714;BMP280;12820;51.580;5.010;2022-11-20T19:34:01;100433.13;;;9.46
24714;BMP280;12820;51.580;5.010;2022-11-20T19:39:05;100423.09;;;9.44
24714;BMP280;12820;51.580;5.010;2022-11-20T19:44:10;100417.31;;;9.42
24714;BMP280;12820;51.580;5.010;2022-11-20T19:49:13;100433.19;;;9.41
24714;BMP280;12820;51.580;5.010;2022-11-20T19:54:16;100433.22;;;9.40
24714;BMP280;12820;51.580;5.010;2022-11-20T19:59:18;100448.31;;;9.39
24714;BMP280;12820;51.580;5.010;2022-11-20T20:04:20;100444.13;;;9.38
24714;BMP280;12820;51.580;5.010;2022-11-20T20:09:26;100431.63;;;9.36
24714;BMP280;12820;51.580;5.010;2022-11-20T20:14:30;100430.78;;;9.36
24714;BMP280;12820;51.580;5.010;2022-11-20T20:19:55;100440.88;;;9.33
24714;BMP280;12820;51.580;5.010;2022-11-20T20:25:22;100441.69;;;9.33
24714;BMP280;12820;51.580;5.010;2022-11-20T20:30:31;100441.69;;;9.33
24714;BMP280;12820;51.580;5.010;2022-11-20T20:36:08;100446.72;;;9.33
24714;BMP280;12820;51.580;5.010;2022-11-20T20:41:11;100450.06;;;9.32
24714;BMP280;12820;51.580;5.010;2022-11-20T20:46:13;100456.75;;;9.32
24714;BMP280;12820;51.580;5.010;2022-11-20T20:51:16;100461.72;;;9.35
24714;BMP280;12820;51.580;5.010;2022-11-20T20:56:18;100479.28;;;9.35
24714;BMP280;12820;51.580;5.010;2022-11-20T21:01:20;100486.78;;;9.35
24714;BMP280;12820;51.580;5.010;2022-11-20T21:06:24;100471.78;;;9.33
24714;BMP280;12820;51.580;5.010;2022-11-20T21:11:26;100466.84;;;9.29
24714;BMP280;12820;51.580;5.010;2022-11-20T21:16:28;100470.28;;;9.23
24714;BMP280;12820;51.580;5.010;2022-11-20T21:21:41;100477.84;;;9.19
24714;BMP280;12820;51.580;5.010;2022-11-20T21:27:04;100486.28;;;9.14
24714;BMP280;12820;51.580;5.010;2022-11-20T21:32:06;100484.69;;;9.10
24714;BMP280;12820;51.580;5.010;2022-11-20T21:37:08;100477.22;;;9.04
24714;BMP280;12820;51.580;5.010;2022-11-20T21:42:10;100479.75;;;9.01
24714;BMP280;12820;51.580;5.010;2022-11-20T21:47:12;100491.50;;;8.99
24714;BMP280;12820;51.580;5.010;2022-11-20T21:52:14;100483.22;;;8.96
24714;BMP280;12820;51.580;5.010;2022-11-20T21:57:16;100489.06;;;8.92
24714;BMP280;12820;51.580;5.010;2022-11-20T22:02:18;100506.66;;;8.89
24714;BMP280;12820;51.580;5.010;2022-11-20T22:07:21;100500.88;;;8.86
24714;BMP280;12820;51.580;5.010;2022-11-20T22:12:23;100518.41;;;8.86
24714;BMP280;12820;51.580;5.010;2022-11-20T22:17:25;100520.09;;;8.85
24714;BMP280;12820;51.580;5.010;2022-11-20T22:22:46;100519.22;;;8.87
24714;BMP280;12820;51.580;5.010;2022-11-20T22:27:48;100529.22;;;8.90
24714;BMP280;12820;51.580;5.010;2022-11-20T22:32:50;100541.69;;;8.92
24714;BMP280;12820;51.580;5.010;2022-11-20T22:37:54;100530.00;;;8.92
24714;BMP280;12820;51.580;5.010;2022-11-20T22:42:56;100542.53;;;8.92
24714;BMP280;12820;51.580;5.010;2022-11-20T22:47:59;100540.91;;;8.91
24714;BMP280;12820;51.580;5.010;2022-11-20T22:53:01;100548.44;;;8.88
24714;BMP280;12820;51.580;5.010;2022-11-20T22:58:03;100557.63;;;8.88
24714;BMP280;12820;51.580;5.010;2022-11-20T23:03:05;100571.00;;;8.87
24714;BMP280;12820;51.580;5.010;2022-11-20T23:08:07;100587.69;;;8.88
24714;BMP280;12820;51.580;5.010;2022-11-20T23:13:09;100567.66;;;8.89
24714;BMP280;12820;51.580;5.010;2022-11-20T23:18:11;100570.16;;;8.89
24714;BMP280;12820;51.580;5.010;2022-11-20T23:23:13;100574.31;;;8.90
24714;BMP280;12820;51.580;5.010;2022-11-20T23:28:15;100589.31;;;8.92
24714;BMP280;12820;51.580;5.010;2022-11-20T23:33:17;100579.28;;;8.93
24714;BMP280;12820;51.580;5.010;2022-11-20T23:38:20;100580.13;;;8.94
24714;BMP280;12820;51.580;5.010;2022-11-20T23:43:22;100577.59;;;8.95
24714;BMP280;12820;51.580;5.010;2022-11-20T23:48:27;100581.78;;;8.95
24714;BMP280;12820;51.580;5.010;2022-11-20T23:53:29;100575.91;;;8.97
24714;BMP280;12820;51.580;5.010;2022-11-20T23:58:36;100579.28;;;8.96
